sensor_id;sensor_type;location;lat;lon;timestamp;temperature;humidity
66184;DHT22;52989;48.796;9.806;2023-02-28T00:00:47;-0.90;82.50
66184;DHT22;52989;48.796;9.806;2023-02-28T00:03:12;-0.80;82.90
66184;DHT22;52989;48.796;9.806;2023-02-28T00:05:38;-1.00;81.70
66184;DHT22;52989;48.796;9.806;2023-02-28T00:08:03;-1.20;84.20
66184;DHT22;52989;48.796;9.806;2023-02-28T00:10:30;-1.30;83.10
66184;DHT22;52989;48.796;9.806;2023-02-28T00:12:56;-1.50;83.80
66184;DHT22;52989;48.796;9.806;2023-02-28T00:15:24;-1.00;84.60
66184;DHT22;52989;48.796;9.806;2023-02-28T00:17:49;-1.20;82.90
66184;DHT22;52989;48.796;9.806;2023-02-28T00:20:15;-1.30;83.30
66184;DHT22;52989;48.796;9.806;2023-02-28T00:22:42;-1.20;86.10
66184;DHT22;52989;48.796;9.806;2023-02-28T00:25:08;-0.70;83.70
66184;DHT22;52989;48.796;9.806;2023-02-28T00:27:37;-1.10;83.00
66184;DHT22;52989;48.796;9.806;2023-02-28T00:30:02;-1.10;83.50
66184;DHT22;52989;48.796;9.806;2023-02-28T00:32:29;-1.20;84.50
66184;DHT22;52989;48.796;9.806;2023-02-28T00:34:55;-0.70;85.40
66184;DHT22;52989;48.796;9.806;2023-02-28T00:37:20;-1.00;82.70
66184;DHT22;52989;48.796;9.806;2023-02-28T00:39:46;-1.10;84.60
66184;DHT22;52989;48.796;9.806;2023-02-28T00:42:11;-0.80;84.50
66184;DHT22;52989;48.796;9.806;2023-02-28T00:44:37;-0.80;84.20
66184;DHT22;52989;48.796;9.806;2023-02-28T00:47:02;-1.30;83.70
66184;DHT22;52989;48.796;9.806;2023-02-28T00:49:28;-0.90;85.00
66184;DHT22;52989;48.796;9.806;2023-02-28T00:51:54;-0.90;83.40
66184;DHT22;52989;48.796;9.806;2023-02-28T00:54:20;-1.00;84.20
66184;DHT22;52989;48.796;9.806;2023-02-28T00:56:45;-1.20;85.00
66184;DHT22;52989;48.796;9.806;2023-02-28T00:59:11;-1.40;85.60
66184;DHT22;52989;48.796;9.806;2023-02-28T01:01:37;-1.50;86.20
66184;DHT22;52989;48.796;9.806;2023-02-28T01:04:03;-0.80;88.40
66184;DHT22;52989;48.796;9.806;2023-02-28T01:06:28;-0.30;86.40
66184;DHT22;52989;48.796;9.806;2023-02-28T01:08:54;-0.90;84.50
66184;DHT22;52989;48.796;9.806;2023-02-28T01:11:19;-1.30;85.30
66184;DHT22;52989;48.796;9.806;2023-02-28T01:13:48;-1.10;85.80
66184;DHT22;52989;48.796;9.806;2023-02-28T01:16:13;-1.30;85.90
66184;DHT22;52989;48.796;9.806;2023-02-28T01:18:39;-1.20;86.10
66184;DHT22;52989;48.796;9.806;2023-02-28T01:21:05;-0.90;87.40
66184;DHT22;52989;48.796;9.806;2023-02-28T01:23:31;-0.90;87.30
66184;DHT22;52989;48.796;9.806;2023-02-28T01:25:57;-0.80;86.40
66184;DHT22;52989;48.796;9.806;2023-02-28T01:28:22;-0.60;87.00
66184;DHT22;52989;48.796;9.806;2023-02-28T01:30:48;-0.80;85.70
66184;DHT22;52989;48.796;9.806;2023-02-28T01:33:14;-0.30;86.20
66184;DHT22;52989;48.796;9.806;2023-02-28T01:35:39;-1.00;86.20
66184;DHT22;52989;48.796;9.806;2023-02-28T01:38:05;-1.00;88.40
66184;DHT22;52989;48.796;9.806;2023-02-28T01:40:30;-1.30;87.20
66184;DHT22;52989;48.796;9.806;2023-02-28T01:42:56;-0.70;87.10
66184;DHT22;52989;48.796;9.806;2023-02-28T01:45:23;-1.50;88.50
66184;DHT22;52989;48.796;9.806;2023-02-28T01:47:51;-1.10;88.00
66184;DHT22;52989;48.796;9.806;2023-02-28T01:50:18;-1.30;87.40
66184;DHT22;52989;48.796;9.806;2023-02-28T01:52:45;-1.30;87.90
66184;DHT22;52989;48.796;9.806;2023-02-28T01:55:11;-1.30;87.50
66184;DHT22;52989;48.796;9.806;2023-02-28T01:57:38;-1.10;88.30
66184;DHT22;52989;48.796;9.806;2023-02-28T02:00:09;-1.30;88.70
66184;DHT22;52989;48.796;9.806;2023-02-28T02:02:40;-0.90;90.20
66184;DHT22;52989;48.796;9.806;2023-02-28T02:05:07;-1.10;89.00
66184;DHT22;52989;48.796;9.806;2023-02-28T02:07:35;-1.50;90.50
66184;DHT22;52989;48.796;9.806;2023-02-28T02:10:11;-1.80;90.10
66184;DHT22;52989;48.796;9.806;2023-02-28T02:13:02;-1.50;91.40
66184;DHT22;52989;48.796;9.806;2023-02-28T02:15:53;-1.10;91.00
66184;DHT22;52989;48.796;9.806;2023-02-28T02:18:26;-1.50;89.90
66184;DHT22;52989;48.796;9.806;2023-02-28T02:28:54;-1.20;89.70
66184;DHT22;52989;48.796;9.806;2023-02-28T02:31:30;-1.20;89.30
66184;DHT22;52989;48.796;9.806;2023-02-28T02:36:33;-1.50;90.30
66184;DHT22;52989;48.796;9.806;2023-02-28T02:39:14;-0.90;90.30
66184;DHT22;52989;48.796;9.806;2023-02-28T02:46:33;-1.20;89.60
66184;DHT22;52989;48.796;9.806;2023-02-28T02:49:00;-1.30;91.30
66184;DHT22;52989;48.796;9.806;2023-02-28T02:51:29;-1.00;89.80
66184;DHT22;52989;48.796;9.806;2023-02-28T02:54:12;-1.20;89.80
66184;DHT22;52989;48.796;9.806;2023-02-28T02:56:41;-1.40;90.10
66184;DHT22;52989;48.796;9.806;2023-02-28T02:59:09;-1.40;90.00
66184;DHT22;52989;48.796;9.806;2023-02-28T03:01:36;-1.10;89.50
66184;DHT22;52989;48.796;9.806;2023-02-28T03:04:04;-1.20;89.20
66184;DHT22;52989;48.796;9.806;2023-02-28T03:06:30;-1.20;90.00
66184;DHT22;52989;48.796;9.806;2023-02-28T03:08:56;-0.90;90.80
66184;DHT22;52989;48.796;9.806;2023-02-28T03:11:21;-0.60;90.50
66184;DHT22;52989;48.796;9.806;2023-02-28T03:16:51;-1.00;88.90
66184;DHT22;52989;48.796;9.806;2023-02-28T03:27:23;-0.90;90.30
66184;DHT22;52989;48.796;9.806;2023-02-28T03:32:33;-1.10;90.50
66184;DHT22;52989;48.796;9.806;2023-02-28T03:35:08;-1.30;90.60
66184;DHT22;52989;48.796;9.806;2023-02-28T03:37:35;-1.40;90.30
66184;DHT22;52989;48.796;9.806;2023-02-28T03:40:05;-1.20;90.40
66184;DHT22;52989;48.796;9.806;2023-02-28T03:42:32;-1.30;90.50
66184;DHT22;52989;48.796;9.806;2023-02-28T03:45:02;-1.20;90.50
66184;DHT22;52989;48.796;9.806;2023-02-28T03:49:59;-1.30;90.50
66184;DHT22;52989;48.796;9.806;2023-02-28T03:52:27;-1.10;91.30
66184;DHT22;52989;48.796;9.806;2023-02-28T03:54:54;-1.10;90.40
66184;DHT22;52989;48.796;9.806;2023-02-28T03:57:23;-1.20;90.60
66184;DHT22;52989;48.796;9.806;2023-02-28T03:59:56;-1.30;90.60
66184;DHT22;52989;48.796;9.806;2023-02-28T04:02:22;-1.10;90.60
66184;DHT22;52989;48.796;9.806;2023-02-28T04:04:47;-1.30;90.50
66184;DHT22;52989;48.796;9.806;2023-02-28T04:07:13;-1.10;90.70
66184;DHT22;52989;48.796;9.806;2023-02-28T04:09:39;-1.00;90.30
66184;DHT22;52989;48.796;9.806;2023-02-28T04:12:07;-0.90;90.70
66184;DHT22;52989;48.796;9.806;2023-02-28T04:14:32;-0.90;90.60
66184;DHT22;52989;48.796;9.806;2023-02-28T04:16:59;-1.10;90.70
66184;DHT22;52989;48.796;9.806;2023-02-28T04:19:24;-1.10;90.90
66184;DHT22;52989;48.796;9.806;2023-02-28T04:21:50;-0.80;90.50
66184;DHT22;52989;48.796;9.806;2023-02-28T04:24:17;-0.20;91.80
66184;DHT22;52989;48.796;9.806;2023-02-28T04:26:44;-0.80;89.70
66184;DHT22;52989;48.796;9.806;2023-02-28T04:29:10;-1.00;91.00
66184;DHT22;52989;48.796;9.806;2023-02-28T04:31:36;-0.60;90.90
66184;DHT22;52989;48.796;9.806;2023-02-28T04:34:02;-0.90;90.10
66184;DHT22;52989;48.796;9.806;2023-02-28T04:36:28;-0.60;90.30
66184;DHT22;52989;48.796;9.806;2023-02-28T04:38:53;-0.50;91.50
66184;DHT22;52989;48.796;9.806;2023-02-28T04:41:19;-0.70;91.00
66184;DHT22;52989;48.796;9.806;2023-02-28T04:43:44;-0.60;89.80
66184;DHT22;52989;48.796;9.806;2023-02-28T04:46:10;-1.00;90.00
66184;DHT22;52989;48.796;9.806;2023-02-28T04:48:36;-1.00;90.50
66184;DHT22;52989;48.796;9.806;2023-02-28T04:51:03;-0.80;90.70
66184;DHT22;52989;48.796;9.806;2023-02-28T04:53:29;-1.00;90.30
66184;DHT22;52989;48.796;9.806;2023-02-28T04:55:56;-1.00;90.60
66184;DHT22;52989;48.796;9.806;2023-02-28T04:58:22;-0.50;90.30
66184;DHT22;52989;48.796;9.806;2023-02-28T05:00:52;-0.60;90.10
66184;DHT22;52989;48.796;9.806;2023-02-28T05:03:17;-0.80;90.20
66184;DHT22;52989;48.796;9.806;2023-02-28T05:05:43;-0.80;90.30
66184;DHT22;52989;48.796;9.806;2023-02-28T05:08:08;-0.80;90.80
66184;DHT22;52989;48.796;9.806;2023-02-28T05:10:35;-0.90;90.50
66184;DHT22;52989;48.796;9.806;2023-02-28T05:13:00;-0.70;90.60
66184;DHT22;52989;48.796;9.806;2023-02-28T05:15:27;-0.90;90.40
66184;DHT22;52989;48.796;9.806;2023-02-28T05:17:53;-0.10;90.60
66184;DHT22;52989;48.796;9.806;2023-02-28T05:20:18;-0.60;90.30
66184;DHT22;52989;48.796;9.806;2023-02-28T05:22:44;-0.80;90.20
66184;DHT22;52989;48.796;9.806;2023-02-28T05:25:13;-0.40;90.80
66184;DHT22;52989;48.796;9.806;2023-02-28T05:27:41;-0.50;90.30
66184;DHT22;52989;48.796;9.806;2023-02-28T05:30:08;-0.80;90.10
66184;DHT22;52989;48.796;9.806;2023-02-28T05:32:39;-0.50;90.30
66184;DHT22;52989;48.796;9.806;2023-02-28T05:35:08;-0.70;89.60
66184;DHT22;52989;48.796;9.806;2023-02-28T05:37:33;-0.70;90.20
66184;DHT22;52989;48.796;9.806;2023-02-28T05:39:59;-0.60;89.70
66184;DHT22;52989;48.796;9.806;2023-02-28T05:42:25;-0.40;90.20
66184;DHT22;52989;48.796;9.806;2023-02-28T05:44:50;-0.70;89.90
66184;DHT22;52989;48.796;9.806;2023-02-28T05:47:17;-0.70;90.50
66184;DHT22;52989;48.796;9.806;2023-02-28T05:49:42;-0.70;90.50
66184;DHT22;52989;48.796;9.806;2023-02-28T05:52:08;-0.60;90.60
66184;DHT22;52989;48.796;9.806;2023-02-28T05:54:33;-0.80;90.50
66184;DHT22;52989;48.796;9.806;2023-02-28T05:56:59;-0.80;90.00
66184;DHT22;52989;48.796;9.806;2023-02-28T05:59:24;-0.90;90.40
66184;DHT22;52989;48.796;9.806;2023-02-28T06:01:50;-0.90;90.30
66184;DHT22;52989;48.796;9.806;2023-02-28T06:04:17;-0.80;90.50
66184;DHT22;52989;48.796;9.806;2023-02-28T06:06:44;-0.90;90.30
66184;DHT22;52989;48.796;9.806;2023-02-28T06:09:10;-0.90;90.40
66184;DHT22;52989;48.796;9.806;2023-02-28T06:11:36;-0.70;91.10
66184;DHT22;52989;48.796;9.806;2023-02-28T06:14:01;-0.80;90.50
66184;DHT22;52989;48.796;9.806;2023-02-28T06:16:27;-1.00;90.70
66184;DHT22;52989;48.796;9.806;2023-02-28T06:18:53;-1.00;90.50
66184;DHT22;52989;48.796;9.806;2023-02-28T06:21:21;-1.10;90.60
66184;DHT22;52989;48.796;9.806;2023-02-28T06:23:47;-1.00;90.70
66184;DHT22;52989;48.796;9.806;2023-02-28T06:26:13;-0.80;90.30
66184;DHT22;52989;48.796;9.806;2023-02-28T06:28:38;-1.00;90.50
66184;DHT22;52989;48.796;9.806;2023-02-28T06:31:10;-1.10;90.50
66184;DHT22;52989;48.796;9.806;2023-02-28T06:33:36;-1.00;90.90
66184;DHT22;52989;48.796;9.806;2023-02-28T06:36:03;-1.10;90.60
66184;DHT22;52989;48.796;9.806;2023-02-28T06:38:28;-1.00;90.60
66184;DHT22;52989;48.796;9.806;2023-02-28T06:40:54;-1.00;90.80
66184;DHT22;52989;48.796;9.806;2023-02-28T06:43:20;-0.80;90.40
66184;DHT22;52989;48.796;9.806;2023-02-28T06:45:46;-0.70;90.40
66184;DHT22;52989;48.796;9.806;2023-02-28T06:48:11;-0.70;90.50
66184;DHT22;52989;48.796;9.806;2023-02-28T06:50:37;-0.60;90.10
66184;DHT22;52989;48.796;9.806;2023-02-28T06:53:02;-0.70;89.90
66184;DHT22;52989;48.796;9.806;2023-02-28T06:55:28;-0.60;90.10
66184;DHT22;52989;48.796;9.806;2023-02-28T06:57:53;-0.80;90.10
66184;DHT22;52989;48.796;9.806;2023-02-28T07:00:20;-0.40;90.50
66184;DHT22;52989;48.796;9.806;2023-02-28T07:02:45;-0.50;89.10
66184;DHT22;52989;48.796;9.806;2023-02-28T07:05:12;-0.40;89.90
66184;DHT22;52989;48.796;9.806;2023-02-28T07:07:37;-0.50;89.70
66184;DHT22;52989;48.796;9.806;2023-02-28T07:10:06;-0.50;89.10
66184;DHT22;52989;48.796;9.806;2023-02-28T07:12:31;0.00;89.10
66184;DHT22;52989;48.796;9.806;2023-02-28T07:14:57;-0.30;88.40
66184;DHT22;52989;48.796;9.806;2023-02-28T07:17:22;-0.50;88.20
66184;DHT22;52989;48.796;9.806;2023-02-28T07:19:48;-0.30;88.90
66184;DHT22;52989;48.796;9.806;2023-02-28T07:22:13;0.10;89.30
66184;DHT22;52989;48.796;9.806;2023-02-28T07:24:39;-0.20;87.90
66184;DHT22;52989;48.796;9.806;2023-02-28T07:27:04;-0.20;89.20
66184;DHT22;52989;48.796;9.806;2023-02-28T07:29:30;-0.20;89.10
66184;DHT22;52989;48.796;9.806;2023-02-28T07:31:56;-0.40;89.00
66184;DHT22;52989;48.796;9.806;2023-02-28T07:34:21;-0.20;89.60
66184;DHT22;52989;48.796;9.806;2023-02-28T07:36:47;-0.10;87.80
66184;DHT22;52989;48.796;9.806;2023-02-28T07:39:12;-0.20;88.60
66184;DHT22;52989;48.796;9.806;2023-02-28T07:41:38;0.10;88.40
66184;DHT22;52989;48.796;9.806;2023-02-28T07:44:11;-0.10;87.50
66184;DHT22;52989;48.796;9.806;2023-02-28T07:46:37;0.20;90.00
66184;DHT22;52989;48.796;9.806;2023-02-28T07:49:03;0.30;87.20
66184;DHT22;52989;48.796;9.806;2023-02-28T07:51:29;0.10;87.30
66184;DHT22;52989;48.796;9.806;2023-02-28T07:53:55;0.60;87.10
66184;DHT22;52989;48.796;9.806;2023-02-28T07:56:20;0.40;85.80
66184;DHT22;52989;48.796;9.806;2023-02-28T07:58:45;0.20;86.50
66184;DHT22;52989;48.796;9.806;2023-02-28T08:01:11;0.20;86.60
66184;DHT22;52989;48.796;9.806;2023-02-28T08:03:37;0.20;86.70
66184;DHT22;52989;48.796;9.806;2023-02-28T08:06:03;0.20;87.50
66184;DHT22;52989;48.796;9.806;2023-02-28T08:08:29;0.00;87.10
66184;DHT22;52989;48.796;9.806;2023-02-28T08:10:59;0.00;86.80
66184;DHT22;52989;48.796;9.806;2023-02-28T08:13:26;0.00;86.70
66184;DHT22;52989;48.796;9.806;2023-02-28T08:15:52;0.50;87.60
66184;DHT22;52989;48.796;9.806;2023-02-28T08:18:18;0.20;86.10
66184;DHT22;52989;48.796;9.806;2023-02-28T08:20:44;0.30;86.30
66184;DHT22;52989;48.796;9.806;2023-02-28T08:23:09;0.20;88.00
66184;DHT22;52989;48.796;9.806;2023-02-28T08:25:35;0.00;87.90
66184;DHT22;52989;48.796;9.806;2023-02-28T08:28:00;0.10;88.50
66184;DHT22;52989;48.796;9.806;2023-02-28T08:30:26;0.60;88.50
66184;DHT22;52989;48.796;9.806;2023-02-28T08:32:51;0.50;85.80
66184;DHT22;52989;48.796;9.806;2023-02-28T08:35:17;0.50;86.00
66184;DHT22;52989;48.796;9.806;2023-02-28T08:37:42;0.50;86.00
66184;DHT22;52989;48.796;9.806;2023-02-28T08:40:08;0.70;86.70
66184;DHT22;52989;48.796;9.806;2023-02-28T08:42:33;0.70;85.70
66184;DHT22;52989;48.796;9.806;2023-02-28T08:44:59;0.80;85.10
66184;DHT22;52989;48.796;9.806;2023-02-28T08:47:24;0.80;84.50
66184;DHT22;52989;48.796;9.806;2023-02-28T08:49:50;0.70;84.90
66184;DHT22;52989;48.796;9.806;2023-02-28T08:52:15;0.70;84.20
66184;DHT22;52989;48.796;9.806;2023-02-28T08:54:41;1.00;84.40
66184;DHT22;52989;48.796;9.806;2023-02-28T08:57:06;1.10;83.70
66184;DHT22;52989;48.796;9.806;2023-02-28T08:59:32;1.20;83.50
66184;DHT22;52989;48.796;9.806;2023-02-28T09:01:58;1.20;83.30
66184;DHT22;52989;48.796;9.806;2023-02-28T09:04:23;1.00;83.10
66184;DHT22;52989;48.796;9.806;2023-02-28T09:06:50;1.80;83.90
66184;DHT22;52989;48.796;9.806;2023-02-28T09:09:16;1.60;83.00
66184;DHT22;52989;48.796;9.806;2023-02-28T09:11:41;1.70;81.70
66184;DHT22;52989;48.796;9.806;2023-02-28T09:14:07;1.50;82.10
66184;DHT22;52989;48.796;9.806;2023-02-28T09:16:33;1.50;81.70
66184;DHT22;52989;48.796;9.806;2023-02-28T09:18:58;1.30;82.70
66184;DHT22;52989;48.796;9.806;2023-02-28T09:21:24;1.30;82.70
66184;DHT22;52989;48.796;9.806;2023-02-28T09:23:50;1.50;82.80
66184;DHT22;52989;48.796;9.806;2023-02-28T09:26:16;1.80;81.60
66184;DHT22;52989;48.796;9.806;2023-02-28T09:28:42;2.30;82.90
66184;DHT22;52989;48.796;9.806;2023-02-28T09:31:10;2.00;79.80
66184;DHT22;52989;48.796;9.806;2023-02-28T09:33:36;2.10;80.30
66184;DHT22;52989;48.796;9.806;2023-02-28T09:36:02;1.90;80.40
66184;DHT22;52989;48.796;9.806;2023-02-28T09:38:28;2.20;80.60
66184;DHT22;52989;48.796;9.806;2023-02-28T09:41:16;1.90;79.90
66184;DHT22;52989;48.796;9.806;2023-02-28T09:43:41;1.90;80.10
66184;DHT22;52989;48.796;9.806;2023-02-28T09:46:12;2.00;79.60
66184;DHT22;52989;48.796;9.806;2023-02-28T09:48:41;2.10;78.50
66184;DHT22;52989;48.796;9.806;2023-02-28T09:53:52;2.70;78.40
66184;DHT22;52989;48.796;9.806;2023-02-28T09:56:22;3.10;77.40
66184;DHT22;52989;48.796;9.806;2023-02-28T09:58:59;3.40;75.70
66184;DHT22;52989;48.796;9.806;2023-02-28T10:03:58;3.40;74.60
66184;DHT22;52989;48.796;9.806;2023-02-28T10:06:26;3.50;75.50
66184;DHT22;52989;48.796;9.806;2023-02-28T10:09:08;3.60;74.40
66184;DHT22;52989;48.796;9.806;2023-02-28T10:11:36;3.50;73.90
66184;DHT22;52989;48.796;9.806;2023-02-28T10:14:10;3.10;73.90
66184;DHT22;52989;48.796;9.806;2023-02-28T10:21:38;2.90;75.20
66184;DHT22;52989;48.796;9.806;2023-02-28T10:24:50;3.00;74.50
66184;DHT22;52989;48.796;9.806;2023-02-28T10:26:50;3.10;74.00
66184;DHT22;52989;48.796;9.806;2023-02-28T10:29:16;3.30;74.20
66184;DHT22;52989;48.796;9.806;2023-02-28T10:31:42;3.80;75.20
66184;DHT22;52989;48.796;9.806;2023-02-28T10:34:07;3.40;72.60
66184;DHT22;52989;48.796;9.806;2023-02-28T10:36:37;2.90;74.50
66184;DHT22;52989;48.796;9.806;2023-02-28T10:39:16;3.00;74.70
66184;DHT22;52989;48.796;9.806;2023-02-28T10:41:47;2.90;74.70
66184;DHT22;52989;48.796;9.806;2023-02-28T10:44:14;2.90;75.40
66184;DHT22;52989;48.796;9.806;2023-02-28T10:46:40;2.70;75.20
66184;DHT22;52989;48.796;9.806;2023-02-28T10:49:12;2.70;75.90
66184;DHT22;52989;48.796;9.806;2023-02-28T10:51:38;2.90;74.70
66184;DHT22;52989;48.796;9.806;2023-02-28T10:54:05;2.70;74.90
66184;DHT22;52989;48.796;9.806;2023-02-28T10:56:31;2.70;73.90
66184;DHT22;52989;48.796;9.806;2023-02-28T11:01:42;2.80;75.90
66184;DHT22;52989;48.796;9.806;2023-02-28T11:04:17;2.90;74.80
66184;DHT22;52989;48.796;9.806;2023-02-28T11:06:44;3.10;74.90
66184;DHT22;52989;48.796;9.806;2023-02-28T11:12:22;3.40;75.20
66184;DHT22;52989;48.796;9.806;2023-02-28T11:14:49;3.40;73.50
66184;DHT22;52989;48.796;9.806;2023-02-28T11:17:23;3.40;73.60
66184;DHT22;52989;48.796;9.806;2023-02-28T11:19:50;3.40;72.80
66184;DHT22;52989;48.796;9.806;2023-02-28T11:22:20;3.50;73.30
66184;DHT22;52989;48.796;9.806;2023-02-28T11:24:48;3.40;74.10
66184;DHT22;52989;48.796;9.806;2023-02-28T11:27:25;3.60;74.50
66184;DHT22;52989;48.796;9.806;2023-02-28T11:29:50;3.90;73.30
66184;DHT22;52989;48.796;9.806;2023-02-28T11:32:18;4.00;71.90
66184;DHT22;52989;48.796;9.806;2023-02-28T11:34:44;4.00;72.90
66184;DHT22;52989;48.796;9.806;2023-02-28T11:37:12;4.00;73.30
66184;DHT22;52989;48.796;9.806;2023-02-28T11:39:38;4.70;73.50
66184;DHT22;52989;48.796;9.806;2023-02-28T11:52:35;4.70;70.70
66184;DHT22;52989;48.796;9.806;2023-02-28T11:55:11;5.20;69.30
66184;DHT22;52989;48.796;9.806;2023-02-28T12:00:21;5.30;68.80
66184;DHT22;52989;48.796;9.806;2023-02-28T12:02:58;5.20;67.50
66184;DHT22;52989;48.796;9.806;2023-02-28T12:05:43;5.20;67.20
66184;DHT22;52989;48.796;9.806;2023-02-28T12:13:24;5.60;68.80
66184;DHT22;52989;48.796;9.806;2023-02-28T12:18:35;5.30;67.10
66184;DHT22;52989;48.796;9.806;2023-02-28T12:21:22;5.30;66.80
66184;DHT22;52989;48.796;9.806;2023-02-28T12:26:38;5.30;67.50
66184;DHT22;52989;48.796;9.806;2023-02-28T12:31:49;5.60;67.60
66184;DHT22;52989;48.796;9.806;2023-02-28T12:34:16;5.60;67.30
66184;DHT22;52989;48.796;9.806;2023-02-28T12:36:43;5.80;67.00
66184;DHT22;52989;48.796;9.806;2023-02-28T12:39:20;5.60;66.70
66184;DHT22;52989;48.796;9.806;2023-02-28T12:42:09;5.50;66.50
66184;DHT22;52989;48.796;9.806;2023-02-28T12:47:14;5.60;66.50
66184;DHT22;52989;48.796;9.806;2023-02-28T12:49:53;5.50;67.70
66184;DHT22;52989;48.796;9.806;2023-02-28T12:52:25;5.50;66.60
66184;DHT22;52989;48.796;9.806;2023-02-28T12:54:59;5.80;66.60
66184;DHT22;52989;48.796;9.806;2023-02-28T12:59:52;5.60;65.90
66184;DHT22;52989;48.796;9.806;2023-02-28T13:07:35;5.70;65.00
66184;DHT22;52989;48.796;9.806;2023-02-28T13:10:04;5.60;64.90
66184;DHT22;52989;48.796;9.806;2023-02-28T13:12:33;5.60;65.80
66184;DHT22;52989;48.796;9.806;2023-02-28T13:15:18;5.70;66.30
66184;DHT22;52989;48.796;9.806;2023-02-28T13:17:53;5.80;66.10
66184;DHT22;52989;48.796;9.806;2023-02-28T13:20:20;5.60;66.50
66184;DHT22;52989;48.796;9.806;2023-02-28T13:22:47;5.60;66.80
66184;DHT22;52989;48.796;9.806;2023-02-28T13:27:48;5.70;66.90
66184;DHT22;52989;48.796;9.806;2023-02-28T13:35:48;5.80;67.20
66184;DHT22;52989;48.796;9.806;2023-02-28T13:38:32;5.70;66.80
66184;DHT22;52989;48.796;9.806;2023-02-28T13:41:29;5.60;67.10
66184;DHT22;52989;48.796;9.806;2023-02-28T13:44:00;5.60;67.10
66184;DHT22;52989;48.796;9.806;2023-02-28T13:46:29;5.50;66.70
66184;DHT22;52989;48.796;9.806;2023-02-28T13:48:54;5.50;67.50
66184;DHT22;52989;48.796;9.806;2023-02-28T13:51:38;5.80;67.50
66184;DHT22;52989;48.796;9.806;2023-02-28T13:56:45;5.70;66.70
66184;DHT22;52989;48.796;9.806;2023-02-28T13:59:16;5.70;66.80
66184;DHT22;52989;48.796;9.806;2023-02-28T14:01:51;5.60;66.40
66184;DHT22;52989;48.796;9.806;2023-02-28T14:06:48;6.20;66.70
66184;DHT22;52989;48.796;9.806;2023-02-28T14:11:43;6.00;66.50
66184;DHT22;52989;48.796;9.806;2023-02-28T14:14:10;5.80;66.20
66184;DHT22;52989;48.796;9.806;2023-02-28T14:16:55;6.00;66.50
66184;DHT22;52989;48.796;9.806;2023-02-28T14:19:25;5.70;66.30
66184;DHT22;52989;48.796;9.806;2023-02-28T14:27:05;6.00;67.60
66184;DHT22;52989;48.796;9.806;2023-02-28T14:32:28;5.50;67.10
66184;DHT22;52989;48.796;9.806;2023-02-28T14:37:43;5.50;67.50
66184;DHT22;52989;48.796;9.806;2023-02-28T14:40:14;5.60;68.00
66184;DHT22;52989;48.796;9.806;2023-02-28T14:42:45;5.50;67.20
66184;DHT22;52989;48.796;9.806;2023-02-28T14:45:18;5.60;67.50
66184;DHT22;52989;48.796;9.806;2023-02-28T14:47:43;5.30;67.40
66184;DHT22;52989;48.796;9.806;2023-02-28T14:50:17;5.20;67.60
66184;DHT22;52989;48.796;9.806;2023-02-28T14:52:43;5.10;68.00
66184;DHT22;52989;48.796;9.806;2023-02-28T14:55:17;5.10;68.40
66184;DHT22;52989;48.796;9.806;2023-02-28T14:57:53;5.70;70.00
66184;DHT22;52989;48.796;9.806;2023-02-28T15:02:50;5.30;67.80
66184;DHT22;52989;48.796;9.806;2023-02-28T15:05:22;5.50;66.80
66184;DHT22;52989;48.796;9.806;2023-02-28T15:07:49;5.50;67.40
66184;DHT22;52989;48.796;9.806;2023-02-28T15:10:26;5.40;67.70
66184;DHT22;52989;48.796;9.806;2023-02-28T15:12:56;5.30;69.20
66184;DHT22;52989;48.796;9.806;2023-02-28T15:15:24;5.20;68.30
66184;DHT22;52989;48.796;9.806;2023-02-28T15:17:52;5.10;67.60
66184;DHT22;52989;48.796;9.806;2023-02-28T15:20:19;5.00;68.10
66184;DHT22;52989;48.796;9.806;2023-02-28T15:22:45;5.00;69.10
66184;DHT22;52989;48.796;9.806;2023-02-28T15:25:13;5.00;68.60
66184;DHT22;52989;48.796;9.806;2023-02-28T15:27:42;5.00;68.00
66184;DHT22;52989;48.796;9.806;2023-02-28T15:30:17;4.90;69.70
66184;DHT22;52989;48.796;9.806;2023-02-28T15:32:43;4.90;69.10
66184;DHT22;52989;48.796;9.806;2023-02-28T15:35:20;4.70;69.30
66184;DHT22;52989;48.796;9.806;2023-02-28T15:37:46;4.70;70.90
66184;DHT22;52989;48.796;9.806;2023-02-28T15:43:17;4.60;70.00
66184;DHT22;52989;48.796;9.806;2023-02-28T15:45:50;4.70;69.60
66184;DHT22;52989;48.796;9.806;2023-02-28T15:51:24;4.50;70.80
66184;DHT22;52989;48.796;9.806;2023-02-28T15:54:12;4.60;70.30
66184;DHT22;52989;48.796;9.806;2023-02-28T15:56:43;4.50;70.00
66184;DHT22;52989;48.796;9.806;2023-02-28T15:59:16;4.40;70.60
66184;DHT22;52989;48.796;9.806;2023-02-28T16:01:43;4.30;71.40
66184;DHT22;52989;48.796;9.806;2023-02-28T16:04:15;4.10;70.80
66184;DHT22;52989;48.796;9.806;2023-02-28T16:06:42;4.00;70.90
66184;DHT22;52989;48.796;9.806;2023-02-28T16:09:12;4.10;71.60
66184;DHT22;52989;48.796;9.806;2023-02-28T16:11:39;4.20;71.00
66184;DHT22;52989;48.796;9.806;2023-02-28T16:14:08;4.20;72.30
66184;DHT22;52989;48.796;9.806;2023-02-28T16:16:34;4.20;70.50
66184;DHT22;52989;48.796;9.806;2023-02-28T16:19:00;3.80;72.40
66184;DHT22;52989;48.796;9.806;2023-02-28T16:21:25;3.70;71.40
66184;DHT22;52989;48.796;9.806;2023-02-28T16:23:51;3.60;72.50
66184;DHT22;52989;48.796;9.806;2023-02-28T16:26:19;3.40;72.30
66184;DHT22;52989;48.796;9.806;2023-02-28T16:28:44;3.70;72.70
66184;DHT22;52989;48.796;9.806;2023-02-28T16:31:10;3.50;72.10
66184;DHT22;52989;48.796;9.806;2023-02-28T16:33:41;3.30;72.50
66184;DHT22;52989;48.796;9.806;2023-02-28T16:36:09;3.20;73.40
66184;DHT22;52989;48.796;9.806;2023-02-28T16:38:35;3.20;73.50
66184;DHT22;52989;48.796;9.806;2023-02-28T16:41:00;3.20;73.90
66184;DHT22;52989;48.796;9.806;2023-02-28T16:43:26;3.00;74.20
66184;DHT22;52989;48.796;9.806;2023-02-28T16:45:55;2.90;74.20
66184;DHT22;52989;48.796;9.806;2023-02-28T16:48:21;2.90;74.40
66184;DHT22;52989;48.796;9.806;2023-02-28T16:50:47;2.80;75.10
66184;DHT22;52989;48.796;9.806;2023-02-28T16:53:12;2.60;75.60
66184;DHT22;52989;48.796;9.806;2023-02-28T16:55:38;2.50;75.90
66184;DHT22;52989;48.796;9.806;2023-02-28T16:58:04;2.50;76.00
66184;DHT22;52989;48.796;9.806;2023-02-28T17:00:30;2.50;76.70
66184;DHT22;52989;48.796;9.806;2023-02-28T17:02:56;2.60;75.70
66184;DHT22;52989;48.796;9.806;2023-02-28T17:05:22;2.50;76.10
66184;DHT22;52989;48.796;9.806;2023-02-28T17:07:48;2.30;76.60
66184;DHT22;52989;48.796;9.806;2023-02-28T17:12:39;2.10;77.10
66184;DHT22;52989;48.796;9.806;2023-02-28T17:15:05;2.00;77.60
66184;DHT22;52989;48.796;9.806;2023-02-28T17:17:31;1.90;77.80
66184;DHT22;52989;48.796;9.806;2023-02-28T17:19:57;1.90;77.60
66184;DHT22;52989;48.796;9.806;2023-02-28T17:22:22;1.80;78.60
66184;DHT22;52989;48.796;9.806;2023-02-28T17:24:48;1.70;78.40
66184;DHT22;52989;48.796;9.806;2023-02-28T17:27:13;1.80;78.60
66184;DHT22;52989;48.796;9.806;2023-02-28T17:29:39;1.70;78.80
66184;DHT22;52989;48.796;9.806;2023-02-28T17:32:04;1.60;79.90
66184;DHT22;52989;48.796;9.806;2023-02-28T17:34:30;1.50;79.10
66184;DHT22;52989;48.796;9.806;2023-02-28T17:36:55;1.50;79.50
66184;DHT22;52989;48.796;9.806;2023-02-28T17:39:21;1.80;80.20
66184;DHT22;52989;48.796;9.806;2023-02-28T17:41:50;1.70;78.90
66184;DHT22;52989;48.796;9.806;2023-02-28T17:44:17;1.50;79.80
66184;DHT22;52989;48.796;9.806;2023-02-28T17:46:43;1.50;79.60